Latest Weather Observations for Warwick

IDQ60901

Issued at 2:51 pm EST Friday 30 September 2016 (issued every 10 minutes, with the page automatically refreshed every 10 minutes)

About weather observations | Map of Brisbane area stations | Latest observations for Brisbane area | Other Formats
Station Details ID: 041525 Name: WARWICK Lat: -28.21 Lon: 152.10 Height: 475.4 m
Data from the previous 72 hours. | See also: Recent months at Warwick
Date/Time
EST
Temp
°C
App
Temp
°C
Dew
Point
°C
Rel
Hum
%
Delta-T
°C
Wind Press
QNH
hPa
Press
MSL
hPa
Rain since
9am
mm
Dir  Spd
km/h
Gust
km/h
Spd
kts
Gust
kts
30/02:30pm 17.8 11.6 2.2 35 7.3 W 24 37 13 20 1006.5 1005.4 0.0
30/02:03pm 17.3 10.1 1.0 33 7.4 W 28 48 15 26 1006.4 1005.3 0.0
30/02:00pm 17.7 11.0 1.4 33 7.5 W 26 43 14 23 1006.3 1005.2 0.0
30/01:30pm 17.2 10.1 1.2 34 7.3 W 28 48 15 26 1006.4 1005.3 0.0
30/01:02pm 17.1 9.9 1.0 33 7.3 W 28 46 15 25 1006.4 1005.3 0.0
30/01:00pm 17.2 9.6 0.8 33 7.4 W 30 46 16 25 1006.3 1005.2 0.0
30/12:34pm 16.8 9.6 0.8 34 7.2 WNW 28 46 15 25 1006.3 1005.2 0.0
30/12:30pm 16.7 9.1 0.3 33 7.3 WNW 30 46 16 25 1006.3 1005.2 0.0
30/12:10pm 16.6 9.4 0.8 34 7.1 WNW 28 46 15 25 1006.3 1005.2 0.0
30/12:00pm 16.8 10.1 1.2 35 7.1 WNW 26 37 14 20 1006.4 1005.3 0.0
30/11:30am 16.7 10.4 1.3 35 7.0 W 24 43 13 23 1006.8 1005.8 0.0
30/11:00am 15.5 7.3 -0.7 33 7.0 WNW 32 46 17 25 1007.2 1006.2 0.0
30/10:30am 15.9 9.6 1.6 38 6.5 W 24 35 13 19 1007.3 1006.3 0.0
30/10:00am 15.2 8.7 0.1 35 6.6 WNW 24 37 13 20 1007.5 1006.5 0.0
30/09:30am 14.7 8.4 1.3 40 6.0 W 24 37 13 20 1007.7 1006.7 0.0
30/09:00am 14.4 8.3 0.5 38 6.1 W 22 39 12 21 1007.8 1006.8 14.6
30/08:30am 13.6 8.1 2.0 45 5.2 WNW 20 30 11 16 1008.0 1007.0 14.6
30/08:00am 13.0 8.3 2.9 50 4.6 W 17 24 9 13 1008.2 1007.2 14.6
30/07:30am 12.4 7.9 4.3 57 3.8 W 17 26 9 14 1008.2 1007.2 14.6
30/07:00am 11.9 7.8 4.4 60 3.5 WNW 15 20 8 11 1008.1 1007.1 14.6
30/06:30am 11.6 7.5 4.5 61 3.3 NW 15 22 8 12 1007.9 1006.9 14.6
30/06:00am 11.3 7.6 4.2 61 3.3 NW 13 20 7 11 1007.4 1006.4 14.6
30/05:30am 11.0 7.2 4.0 62 3.2 WNW 13 20 7 11 1007.2 1006.2 14.6
30/05:00am 10.7 7.2 5.4 70 2.5 W 13 19 7 10 1006.8 1005.8 14.6
30/04:30am 10.5 8.0 6.6 77 1.9 W 9 15 5 8 1006.6 1005.6 14.6
30/04:00am 11.5 9.3 7.9 78 1.8 W 9 17 5 9 1006.4 1005.3 14.6
30/03:30am 12.3 9.9 10.0 86 1.2 W 13 24 7 13 1006.5 1005.4 14.6
30/03:00am 12.9 11.1 10.7 86 1.2 WNW 11 19 6 10 1006.2 1005.1 14.6
30/02:30am 13.4 11.3 11.2 86 1.2 W 13 17 7 9 1006.3 1005.2 14.6
30/02:00am 13.8 11.8 11.4 85 1.3 WNW 13 20 7 11 1006.8 1005.8 14.6
30/01:30am 14.1 12.4 12.3 89 1.0 NW 13 20 7 11 1007.0 1006.0 14.6
30/01:00am 14.0 13.8 13.1 94 0.5 W 6 11 3 6 1007.0 1006.0 14.6
30/12:30am 14.8 13.5 13.6 92 0.7 WNW 13 24 7 13 1006.8 1005.8 14.6
30/12:00am 14.6 12.0 13.2 91 0.8 NW 19 28 10 15 1007.3 1006.3 14.6
 
Date/Time
EST
Temp
°C
App
Temp
°C
Dew
Point
°C
Rel
Hum
%
Delta-T
°C
Wind Press
QNH
hPa
Press
MSL
hPa
Rain since
9am
mm
Dir  Spd
km/h
Gust
km/h
Spd
kts
Gust
kts
29/11:30pm 14.2 10.6 13.0 92 0.7 WNW 24 41 13 22 1007.3 1006.3 11.8
29/11:00pm 16.0 13.2 13.2 83 1.6 NW 20 35 11 19 1006.9 1005.9 3.0
29/10:30pm 16.1 13.2 12.9 81 1.8 N 20 33 11 18 1006.6 1005.6 3.0
29/10:00pm 16.3 13.6 12.8 80 2.0 N 19 30 10 16 1006.6 1005.6 3.0
29/09:30pm 16.5 14.0 12.4 77 2.3 N 17 28 9 15 1006.8 1005.8 3.0
29/09:00pm 16.5 12.2 12.2 76 2.4 N 26 37 14 20 1006.6 1005.6 3.0
29/08:30pm 17.0 13.4 12.0 72 2.8 N 22 33 12 18 1006.5 1005.4 3.0
29/08:00pm 16.8 12.9 12.0 73 2.7 N 24 37 13 20 1006.2 1005.1 3.0
29/07:30pm 16.9 13.3 11.7 71 2.9 N 22 32 12 17 1005.8 1004.8 3.0
29/07:00pm 16.5 12.7 11.1 70 3.0 N 22 33 12 18 1005.6 1004.6 3.0
29/06:30pm 16.2 11.4 10.3 68 3.2 N 26 35 14 19 1005.5 1004.5 3.0
29/06:00pm 16.1 12.6 10.2 68 3.2 N 19 26 10 14 1005.4 1004.4 3.0
29/05:30pm 16.3 13.2 10.2 67 3.3 N 17 24 9 13 1005.4 1004.4 3.0
29/05:00pm 16.8 13.7 10.2 65 3.6 N 17 26 9 14 1005.4 1004.4 3.0
29/04:30pm 16.8 14.9 10.4 66 3.5 N 11 20 6 11 1005.5 1004.5 3.0
29/04:00pm 16.3 14.3 11.4 73 2.7 N 13 20 7 11 1005.4 1004.4 3.0
29/03:30pm 16.1 14.8 11.2 72 2.7 NNW 9 17 5 9 1005.4 1004.4 3.0
29/03:00pm 15.7 12.9 11.2 74 2.5 N 17 28 9 15 1005.4 1004.4 3.0
29/02:37pm 15.6 10.6 10.8 73 2.6 N 28 50 15 27 1006.2 1005.1 3.0
29/02:30pm 15.9 12.0 10.8 71 2.8 N 22 39 12 21 1006.2 1005.1 3.0
29/02:00pm 17.0 14.3 11.6 70 3.0 N 17 35 9 19 1006.2 1005.1 3.0
29/01:30pm 15.7 12.7 10.6 71 2.8 N 17 32 9 17 1006.9 1005.9 3.0
29/01:00pm 14.6 13.4 11.5 82 1.7 NNW 9 13 5 7 1007.3 1006.3 3.0
29/12:30pm 14.7 11.1 10.6 76 2.2 NNW 20 37 11 20 1007.7 1006.7 2.4
29/12:00pm 15.2 12.9 10.4 73 2.6 N 13 22 7 12 1008.0 1007.0 2.2
29/11:30am 14.3 13.0 11.4 83 1.6 N 9 28 5 15 1008.7 1007.7 2.2
29/11:00am 14.5 10.4 10.2 75 2.3 NW 22 35 12 19 1009.5 1008.5 1.0
29/10:30am 18.7 14.2 7.1 46 6.0 NNW 20 33 11 18 1008.4 1007.3 0.2
29/10:00am 18.3 14.7 8.5 52 5.2 N 17 28 9 15 1007.8 1006.8 0.2
29/09:30am 18.1 16.2 7.5 50 5.5 N 7 15 4 8 1008.5 1007.5 0.0
29/09:00am 17.4 15.2 7.8 53 5.0 NNW 9 19 5 10 1008.9 1007.9 0.0
29/08:30am 17.0 15.4 8.0 55 4.7 N 6 20 3 11 1008.8 1007.8 0.0
29/08:00am 17.1 15.9 7.9 54 4.8 W 4 11 2 6 1009.2 1008.2 0.0
29/07:30am 16.2 12.7 7.4 56 4.5 NNE 15 19 8 10 1009.1 1008.1 0.0
29/07:00am 12.8 13.0 10.6 86 1.2 CALM 0 0 0 0 1009.1 1008.1 0.0
29/06:30am 12.3 12.5 10.4 88 1.0 CALM 0 0 0 0 1009.4 1008.4 0.0
29/06:00am 12.0 11.4 10.5 90 0.8 NE 4 9 2 5 1009.3 1008.3 0.0
29/05:30am 11.8 12.0 10.5 92 0.7 CALM 0 0 0 0 1009.7 1008.7 0.0
29/05:00am 11.9 11.5 9.6 86 1.2 WSW 2 7 1 4 1009.4 1008.4 0.0
29/04:30am 11.9 10.6 9.2 83 1.4 W 6 7 3 4 1009.4 1008.4 0.0
29/04:00am 11.9 11.9 9.8 87 1.1 CALM 0 0 0 0 1009.1 1008.1 0.0
29/03:30am 11.8 11.7 9.5 86 1.2 CALM 0 0 0 0 1009.3 1008.3 0.0
29/03:00am 11.5 11.4 9.6 88 1.0 CALM 0 0 0 0 1009.5 1008.5 0.0
29/02:30am 11.7 11.6 9.4 86 1.2 CALM 0 0 0 0 1009.7 1008.7 0.0
29/02:00am 11.7 11.5 9.0 83 1.4 CALM 0 0 0 0 1010.0 1009.0 0.0
29/01:30am 11.2 11.1 9.5 89 0.9 CALM 0 0 0 0 1010.1 1009.1 0.0
29/01:00am 11.6 11.5 9.3 86 1.2 CALM 0 0 0 0 1010.9 1009.9 0.0
29/12:30am 11.2 10.9 8.8 85 1.2 CALM 0 0 0 0 1011.8 1010.8 0.0
29/12:00am 11.3 11.1 9.2 87 1.1 CALM 0 0 0 0 1012.2 1011.3 0.0
 
Date/Time
EST
Temp
°C
App
Temp
°C
Dew
Point
°C
Rel
Hum
%
Delta-T
°C
Wind Press
QNH
hPa
Press
MSL
hPa
Rain since
9am
mm
Dir  Spd
km/h
Gust
km/h
Spd
kts
Gust
kts
28/11:30pm 12.0 11.5 8.0 76 2.0 CALM 0 0 0 0 1012.4 1011.5 0.0
28/11:00pm 13.0 12.7 8.7 75 2.2 CALM 0 0 0 0 1012.8 1011.8 0.0
28/10:30pm 13.3 13.1 9.1 76 2.2 CALM 0 0 0 0 1012.6 1011.7 0.0
28/10:00pm 14.3 13.9 11.2 81 1.7 ENE 4 11 2 6 1012.6 1011.7 0.0
28/09:30pm 13.9 13.6 11.3 84 1.4 E 4 9 2 5 1012.8 1011.8 0.0
28/09:00pm 14.0 12.4 11.6 85 1.3 NE 11 15 6 8 1012.5 1011.6 0.0
28/08:30pm 13.4 11.9 10.4 82 1.6 NE 9 11 5 6 1012.5 1011.6 0.0
28/08:00pm 14.1 12.3 9.3 73 2.5 NE 9 13 5 7 1012.1 1011.2 0.0
28/07:30pm 15.1 12.6 9.6 69 2.9 ENE 13 19 7 10 1012.0 1011.1 0.0
28/07:00pm 15.2 13.4 8.0 62 3.7 NNW 7 9 4 5 1011.5 1010.5 0.0
28/06:30pm 15.3 13.7 8.1 62 3.7 NNW 6 7 3 4 1011.5 1010.5 0.0
28/06:00pm 17.8 15.9 7.6 51 5.3 NW 7 11 4 6 1011.3 1010.3 0.0
28/05:30pm 20.2 20.0 8.9 48 6.1 CALM 0 2 0 1 1011.0 1010.0 0.0
28/05:00pm 20.9 19.4 8.4 44 6.7 W 6 9 3 5 1011.2 1010.2 0.0
28/04:30pm 22.5 19.4 5.6 33 8.7 WSW 11 17 6 9 1011.0 1010.0 0.0
28/04:00pm 22.9 19.1 5.7 32 8.9 WSW 15 24 8 13 1010.7 1009.7 0.0
28/03:30pm 23.4 19.4 5.1 30 9.4 WSW 15 26 8 14 1010.6 1009.6 0.0
28/03:00pm 23.3 18.9 4.6 29 9.5 WSW 17 28 9 15 1010.7 1009.7 0.0
28/02:30pm 23.5 18.7 4.9 30 9.5 WSW 19 28 10 15 1011.0 1010.0 0.0
28/02:00pm 23.1 18.3 5.4 31 9.1 WSW 20 32 11 17 1011.4 1010.4 0.0
28/01:30pm 23.2 18.7 5.9 32 9.0 WSW 19 28 10 15 1012.0 1011.1 0.0
28/01:00pm 23.3 18.2 6.0 32 9.0 WSW 22 35 12 19 1012.4 1011.5 0.0
28/12:30pm 23.6 19.1 6.8 34 8.9 WSW 20 32 11 17 1012.8 1011.8 0.0
28/12:00pm 23.1 17.9 5.7 32 9.0 SSW 22 30 12 16 1013.0 1012.0 0.0
28/11:52am 23.1 16.6 4.8 30 9.3 SW 28 46 15 25 1013.2 1012.2 0.0
28/11:30am 22.5 14.9 4.1 30 9.2 WSW 33 46 18 25 1013.5 1012.5 0.0
28/11:00am 22.7 17.6 5.9 33 8.7 WSW 22 33 12 18 1013.7 1012.7 0.0
28/10:33am 22.3 16.5 6.1 35 8.4 WSW 26 48 14 26 1014.1 1013.2 0.0
28/10:30am 22.1 16.8 5.2 33 8.6 WSW 22 48 12 26 1014.2 1013.3 0.0
28/10:28am 22.2 17.7 5.9 34 8.4 W 19 39 10 21 1014.2 1013.3 0.0
28/10:00am 20.1 19.0 8.3 46 6.3 W 4 11 2 6 1014.4 1013.5 0.0
28/09:30am 19.5 17.6 7.7 46 6.2 SSW 7 13 4 7 1014.5 1013.6 0.0
28/09:00am 18.8 17.8 7.2 47 6.0 S 2 9 1 5 1014.7 1013.8 0.0
28/08:30am 17.7 16.6 6.9 49 5.5 S 2 7 1 4 1014.6 1013.7 0.0
28/08:00am 16.3 15.7 7.5 56 4.5 CALM 0 6 0 3 1014.6 1013.7 0.0
28/07:30am 13.8 12.0 8.1 68 2.9 NE 7 9 4 5 1014.3 1013.4 0.0
28/07:00am 10.6 10.2 8.4 86 1.1 CALM 0 0 0 0 1014.2 1013.3 0.0
28/06:30am 7.5 6.8 6.9 96 0.3 CALM 0 0 0 0 1014.0 1013.1 0.0
28/06:00am 5.6 4.6 5.4 99 0.1 CALM 0 0 0 0 1013.7 1012.7 0.0
28/05:30am 6.4 5.4 5.7 95 0.3 CALM 0 0 0 0 1013.5 1012.5 0.0
28/05:00am 6.5 5.5 5.4 93 0.5 CALM 0 0 0 0 1013.2 1012.2 0.0
28/04:30am 6.6 5.6 5.7 94 0.4 CALM 0 0 0 0 1012.9 1011.9 0.0
28/04:00am 6.7 5.6 5.2 90 0.7 CALM 0 0 0 0 1012.8 1011.8 0.0
28/03:30am 6.9 5.9 5.6 91 0.6 CALM 0 0 0 0 1012.5 1011.6 0.0
28/03:00am 8.1 7.1 5.7 85 1.1 CALM 0 0 0 0 1012.4 1011.5 0.0
28/02:30am 8.3 7.5 6.4 88 0.9 CALM 0 0 0 0 1012.4 1011.5 0.0
28/02:00am 8.3 7.5 6.4 88 0.9 CALM 0 0 0 0 1012.6 1011.7 0.0
28/01:30am 8.4 7.4 5.8 84 1.2 CALM 0 0 0 0 1012.8 1011.8 0.0
28/01:00am 9.8 8.7 5.1 72 2.2 CALM 0 0 0 0 1012.9 1011.9 0.0
28/12:30am 8.9 7.7 6.6 85 1.1 SW 2 7 1 4 1013.1 1012.1 0.0
28/12:00am 9.7 8.7 7.2 84 1.2 WSW 2 7 1 4 1013.2 1012.2 0.0
 
Date/Time
EST
Temp
°C
App
Temp
°C
Dew
Point
°C
Rel
Hum
%
Delta-T
°C
Wind Press
QNH
hPa
Press
MSL
hPa
Rain since
9am
mm
Dir  Spd
km/h
Gust
km/h
Spd
kts
Gust
kts
27/11:30pm 9.3 7.6 7.5 88 0.9 E 6 11 3 6 1013.4 1012.4 0.0
27/11:17pm 10.4 9.4 7.3 81 1.5 ESE 2 9 1 5 1013.4 1012.4 0.0
27/11:00pm 15.4 11.8 5.1 50 5.0 WNW 13 17 7 9 1013.4 1012.4 0.0
27/10:30pm 15.4 11.8 5.1 50 5.0 WNW 13 17 7 9 1013.6 1012.6 0.0
27/10:00pm 15.9 12.2 4.7 47 5.4 WNW 13 19 7 10 1013.7 1012.7 0.0
27/09:30pm 15.9 12.3 5.0 48 5.3 WNW 13 19 7 10 1013.9 1013.0 0.0
27/09:00pm 16.4 12.7 4.3 44 5.8 WNW 13 20 7 11 1014.1 1013.2 0.0
27/08:30pm 16.7 12.9 4.0 43 6.1 WNW 13 20 7 11 1014.2 1013.3 0.0
27/08:00pm 16.6 12.9 4.4 44 5.9 WNW 13 19 7 10 1014.1 1013.2 0.0
27/07:30pm 16.4 13.1 4.3 44 5.8 WNW 11 15 6 8 1014.1 1013.2 0.0
27/07:00pm 15.9 13.2 5.5 50 5.1 W 9 13 5 7 1013.9 1013.0 0.0
27/06:30pm 16.5 13.1 4.2 44 5.9 W 11 15 6 8 1013.6 1012.6 0.0
27/06:00pm 16.0 13.4 5.9 51 5.0 WSW 9 17 5 9 1013.2 1012.2 0.0
27/05:30pm 18.2 13.3 3.9 38 6.9 WSW 19 28 10 15 1012.8 1011.8 0.0
27/05:00pm 19.5 14.2 3.0 33 7.9 WSW 20 32 11 17 1012.4 1011.5 0.0
27/04:30pm 20.1 15.1 3.4 33 8.1 WSW 19 26 10 14 1012.2 1011.3 0.0
27/04:00pm 20.6 15.2 4.5 34 8.0 SW 22 33 12 18 1012.3 1011.4 0.0
27/03:30pm 20.4 13.7 3.9 33 8.1 WSW 28 39 15 21 1012.3 1011.4 0.0
27/03:00pm 20.7 13.9 3.2 31 8.5 WSW 28 39 15 21 1012.3 1011.4 0.0

Latest Capital City Observations: Canberra | Sydney | Melbourne | Brisbane | Adelaide | Perth | Hobart | Darwin

Other Formats:

Comma delimited format used in spreadsheet applications
http://www.bom.gov.au/fwo/IDQ60901/IDQ60901.94555.axf

JavaScript Object Notation format (JSON) in row-major order
http://www.bom.gov.au/fwo/IDQ60901/IDQ60901.94555.json